Time;durP1;ratioP1;P1;durP2;ratioP2;P2;SDS_P1;SDS_P2;PMS_P1;PMS_P2;Temp;Humidity;BMP_temperature;BMP_pressure;BME280_temperature;BME280_humidity;BME280_pressure;Samples;Min_cycle;Max_cycle;Signal;HPM_P1;HPM_P2
2021/12/06 00:01:56;;;;;;;;;;;3.10;99.90;;;;;;5066095;28;19927;-81
2021/12/06 00:04:23;;;;;;;;;;;3.10;99.90;;;;;;5049781;28;19929;-81
2021/12/06 00:06:50;;;;;;;;;;;3.10;99.90;;;;;;5070421;28;19925;-82
2021/12/06 00:09:18;;;;;;;;;;;3.00;99.90;;;;;;5067553;28;20405;-81
2021/12/06 00:11:43;;;;;;;;;;;3.10;99.90;;;;;;5061909;28;19964;-81
2021/12/06 00:14:09;;;;;;;;;;;3.10;99.90;;;;;;5053439;28;20305;-82
2021/12/06 00:16:35;;;;;;;;;;;3.10;99.90;;;;;;5036635;28;20366;-82
2021/12/06 00:19:03;;;;;;;;;;;3.00;99.90;;;;;;5042337;28;20037;-82
2021/12/06 00:21:29;;;;;;;;;;;3.00;99.90;;;;;;5050711;28;19925;-81
2021/12/06 00:23:55;;;;;;;;;;;3.00;99.90;;;;;;5036011;28;19927;-81
2021/12/06 00:26:21;;;;;;;;;;;3.00;99.90;;;;;;5056182;28;19925;-80
2021/12/06 00:28:48;;;;;;;;;;;3.00;99.90;;;;;;5075210;28;19927;-80
2021/12/06 00:31:14;;;;;;;;;;;3.00;99.90;;;;;;5056948;28;19925;-81
2021/12/06 00:33:41;;;;;;;;;;;3.00;99.90;;;;;;5060434;28;19927;-80
2021/12/06 00:36:15;;;;;;;;;;;3.00;99.90;;;;;;5042617;28;19928;-80
2021/12/06 00:38:42;;;;;;;;;;;3.00;99.90;;;;;;5052223;28;19924;-80
2021/12/06 00:41:08;;;;;;;;;;;3.00;99.90;;;;;;5048463;28;19928;-81
2021/12/06 00:43:34;;;;;;;;;;;3.00;99.90;;;;;;5045918;28;19928;-81
2021/12/06 00:46:00;;;;;;;;;;;3.00;99.90;;;;;;5045093;28;19969;-82
2021/12/06 00:48:25;;;;;;;;;;;3.00;99.90;;;;;;5054298;28;19931;-80
2021/12/06 00:50:51;;;;;;;;;;;3.00;99.90;;;;;;5054474;28;19920;-81
2021/12/06 00:53:18;;;;;;;;;;;3.00;99.90;;;;;;5053414;28;19921;-81
2021/12/06 00:55:44;;;;;;;;;;;3.00;99.90;;;;;;5046892;28;19933;-80
2021/12/06 00:58:11;;;;;;;;;;;3.00;99.90;;;;;;5049717;28;19955;-80
2021/12/06 01:00:39;;;;;;;;;;;3.00;99.90;;;;;;5050252;28;20011;-80
2021/12/06 01:03:07;;;;;;;;;;;3.10;99.90;;;;;;5039389;28;19920;-80
2021/12/06 01:05:33;;;;;;;;;;;3.10;99.90;;;;;;5035193;28;19925;-81
2021/12/06 01:07:58;;;;;;;;;;;3.10;99.90;;;;;;5068789;28;19929;-80
2021/12/06 01:10:27;;;;;;;;;;;3.10;99.90;;;;;;5037646;28;19971;-80
2021/12/06 01:12:53;;;;;;;;;;;3.10;99.90;;;;;;5053597;28;19932;-80
2021/12/06 01:15:19;;;;;;;;;;;3.10;99.90;;;;;;5046327;28;19921;-80
2021/12/06 01:17:44;;;;;;;;;;;3.10;99.90;;;;;;5052934;28;19971;-82
2021/12/06 01:20:14;;;;;;;;;;;3.10;99.90;;;;;;5029050;28;19920;-81
2021/12/06 01:22:47;;;;;;;;;;;3.10;99.90;;;;;;5036339;28;19927;-80
2021/12/06 01:25:30;;;;;;;;;;;3.20;99.90;;;;;;5039634;28;20440;-80
2021/12/06 01:33:30;;;;;;;;;;;3.20;99.90;;;;;;5047153;28;19921;-81
2021/12/06 01:41:22;;;;;;;;;;;3.20;99.90;;;;;;5069122;28;19927;-80
2021/12/06 01:44:06;;;;;;;;;;;3.20;99.90;;;;;;5049309;28;19943;-80
2021/12/06 01:46:33;;;;;;;;;;;3.20;99.90;;;;;;5038718;28;20376;-81
2021/12/06 01:48:59;;;;;;;;;;;3.20;99.90;;;;;;5049337;28;19999;-80
2021/12/06 01:51:25;;;;;;;;;;;3.20;99.90;;;;;;5065299;28;19921;-82
2021/12/06 01:53:50;;;;;;;;;;;3.30;99.90;;;;;;5024086;28;19920;-81
2021/12/06 01:56:16;;;;;;;;;;;3.20;99.90;;;;;;5057405;28;20380;-81
2021/12/06 01:58:42;;;;;;;;;;;3.30;99.90;;;;;;5052576;28;20015;-81
2021/12/06 02:01:09;;;;;;;;;;;3.30;99.90;;;;;;5035309;28;20272;-82
2021/12/06 02:03:35;;;;;;;;;;;3.30;99.90;;;;;;5054438;28;19931;-81
2021/12/06 02:06:01;;;;;;;;;;;3.20;99.90;;;;;;5027403;28;20003;-80
2021/12/06 02:08:27;;;;;;;;;;;3.20;99.90;;;;;;5032784;28;19921;-81
2021/12/06 02:11:02;;;;;;;;;;;3.20;99.90;;;;;;5066801;28;20305;-81
2021/12/06 02:13:34;;;;;;;;;;;3.20;99.90;;;;;;5054569;28;20011;-81
2021/12/06 02:16:03;;;;;;;;;;;3.20;99.90;;;;;;5042851;28;20003;-80
2021/12/06 02:21:09;;;;;;;;;;;3.30;99.90;;;;;;5072277;28;20405;-81
2021/12/06 02:23:35;;;;;;;;;;;3.30;99.90;;;;;;5030214;28;20298;-81
2021/12/06 02:26:00;;;;;;;;;;;3.30;99.90;;;;;;5041850;28;19927;-81
2021/12/06 02:28:26;;;;;;;;;;;3.30;99.90;;;;;;5054713;28;19921;-81
2021/12/06 02:30:52;;;;;;;;;;;3.20;99.90;;;;;;5029876;28;19925;-81
2021/12/06 02:33:17;;;;;;;;;;;3.30;99.90;;;;;;5048660;28;19925;-80
2021/12/06 02:35:43;;;;;;;;;;;3.20;99.90;;;;;;5055093;28;19932;-81
2021/12/06 02:38:10;;;;;;;;;;;3.20;99.90;;;;;;5050595;28;19965;-82
2021/12/06 02:40:39;;;;;;;;;;;3.20;99.90;;;;;;5046615;28;19931;-81
2021/12/06 02:43:06;;;;;;;;;;;3.20;99.90;;;;;;5030254;28;19920;-81
2021/12/06 02:45:32;;;;;;;;;;;3.20;99.90;;;;;;5071052;28;20404;-80
2021/12/06 02:47:59;;;;;;;;;;;3.20;99.90;;;;;;5040440;28;19921;-81
2021/12/06 02:50:33;;;;;;;;;;;3.20;99.90;;;;;;5031916;28;19929;-81
2021/12/06 02:52:58;;;;;;;;;;;3.20;99.90;;;;;;5038020;28;19920;-81
2021/12/06 02:55:35;;;;;;;;;;;3.20;99.90;;;;;;5031146;28;19974;-81
2021/12/06 02:58:13;;;;;;;;;;;3.20;99.90;;;;;;5054422;28;19924;-81
2021/12/06 03:00:41;;;;;;;;;;;3.20;99.90;;;;;;5043272;28;19921;-81
2021/12/06 03:03:07;;;;;;;;;;;3.20;99.90;;;;;;5038411;28;19921;-81
2021/12/06 03:05:33;;;;;;;;;;;3.20;99.90;;;;;;5047670;28;19921;-80
2021/12/06 03:08:00;;;;;;;;;;;3.20;99.90;;;;;;5054014;28;20307;-80
2021/12/06 03:10:28;;;;;;;;;;;3.20;99.90;;;;;;5039121;28;19975;-81
2021/12/06 03:12:54;;;;;;;;;;;3.20;99.90;;;;;;5053784;28;19929;-81
2021/12/06 03:15:20;;;;;;;;;;;3.20;99.90;;;;;;5023082;28;19920;-81
2021/12/06 03:17:47;;;;;;;;;;;3.20;99.90;;;;;;5051054;28;19924;-81
2021/12/06 03:20:14;;;;;;;;;;;3.10;99.90;;;;;;5023969;28;19968;-80
2021/12/06 03:22:41;;;;;;;;;;;3.20;99.90;;;;;;5040226;28;19921;-81
2021/12/06 03:25:07;;;;;;;;;;;3.20;99.90;;;;;;5032845;28;20307;-81
2021/12/06 03:27:34;;;;;;;;;;;3.20;99.90;;;;;;5052666;28;19974;-81
2021/12/06 03:29:59;;;;;;;;;;;3.20;99.90;;;;;;5047460;28;19933;-80
2021/12/06 03:32:25;;;;;;;;;;;3.20;99.90;;;;;;5069648;28;19920;-80
2021/12/06 03:34:51;;;;;;;;;;;3.20;99.90;;;;;;5053767;28;19994;-80
2021/12/06 03:37:17;;;;;;;;;;;3.20;99.90;;;;;;5050672;28;19958;-80
2021/12/06 03:39:43;;;;;;;;;;;3.20;99.90;;;;;;5031493;28;19959;-81
2021/12/06 03:42:13;;;;;;;;;;;3.30;99.90;;;;;;5030458;28;19924;-81
2021/12/06 03:44:41;;;;;;;;;;;3.30;99.90;;;;;;5041611;28;19926;-81
2021/12/06 03:47:07;;;;;;;;;;;3.30;99.90;;;;;;5065610;28;20439;-80
2021/12/06 03:49:33;;;;;;;;;;;3.30;99.90;;;;;;5050444;28;20436;-81
2021/12/06 03:51:59;;;;;;;;;;;3.30;99.90;;;;;;5036407;28;19921;-80
2021/12/06 03:54:26;;;;;;;;;;;3.20;99.90;;;;;;5032108;28;20478;-81
2021/12/06 03:56:52;;;;;;;;;;;3.30;99.90;;;;;;5027407;28;20326;-79
2021/12/06 03:59:19;;;;;;;;;;;3.30;99.90;;;;;;5052939;28;19920;-80
2021/12/06 04:01:48;;;;;;;;;;;3.30;99.90;;;;;;5049479;28;19928;-80
2021/12/06 04:04:18;;;;;;;;;;;3.30;99.90;;;;;;5058891;28;19924;-80
2021/12/06 04:06:44;;;;;;;;;;;3.30;99.90;;;;;;5051932;28;20402;-80
2021/12/06 04:09:10;;;;;;;;;;;3.20;99.90;;;;;;5040951;28;19920;-80
2021/12/06 04:11:37;;;;;;;;;;;3.20;99.90;;;;;;5046610;28;19921;-80
2021/12/06 04:14:05;;;;;;;;;;;3.20;99.90;;;;;;5032700;28;19920;-81
2021/12/06 04:16:30;;;;;;;;;;;3.20;99.90;;;;;;5054246;28;19943;-80
2021/12/06 04:18:58;;;;;;;;;;;3.30;99.90;;;;;;5049428;28;19921;-80
2021/12/06 04:21:24;;;;;;;;;;;3.20;99.90;;;;;;5050868;28;19928;-80
2021/12/06 04:23:51;;;;;;;;;;;3.20;99.90;;;;;;5034050;28;19921;-80
2021/12/06 04:26:18;;;;;;;;;;;3.20;99.90;;;;;;5046394;28;20326;-80
2021/12/06 04:28:48;;;;;;;;;;;3.20;99.90;;;;;;5046161;28;20306;-80
2021/12/06 04:31:16;;;;;;;;;;;3.20;99.90;;;;;;5036635;28;19968;-80
2021/12/06 04:33:43;;;;;;;;;;;3.20;99.90;;;;;;5054748;28;19925;-80
2021/12/06 04:36:10;;;;;;;;;;;3.20;99.90;;;;;;5053197;28;19925;-80
2021/12/06 04:38:36;;;;;;;;;;;3.20;99.90;;;;;;5043882;28;19979;-80
2021/12/06 04:41:03;;;;;;;;;;;3.20;99.90;;;;;;5040215;28;20346;-80
2021/12/06 04:43:29;;;;;;;;;;;3.20;99.90;;;;;;5045859;28;19960;-80
2021/12/06 04:45:55;;;;;;;;;;;3.20;99.90;;;;;;5053369;28;19928;-80
2021/12/06 04:48:21;;;;;;;;;;;3.20;99.90;;;;;;5037900;28;19925;-80
2021/12/06 04:50:47;;;;;;;;;;;3.20;99.90;;;;;;5044925;28;20390;-80
2021/12/06 04:53:16;;;;;;;;;;;3.20;99.90;;;;;;5045632;28;19928;-80
2021/12/06 04:55:45;;;;;;;;;;;3.10;99.90;;;;;;5033951;28;20283;-80
2021/12/06 04:58:12;;;;;;;;;;;3.20;99.90;;;;;;5043950;28;19920;-81
2021/12/06 05:00:40;;;;;;;;;;;3.20;99.90;;;;;;5051909;28;20003;-80
2021/12/06 05:03:07;;;;;;;;;;;3.20;99.90;;;;;;5062269;28;20361;-81
2021/12/06 05:05:35;;;;;;;;;;;3.20;99.90;;;;;;5029610;28;19921;-80
2021/12/06 05:08:04;;;;;;;;;;;3.10;99.90;;;;;;5037996;28;19936;-80
2021/12/06 05:10:31;;;;;;;;;;;3.10;99.90;;;;;;5052234;28;20386;-80
2021/12/06 05:12:57;;;;;;;;;;;3.10;99.90;;;;;;5055422;28;19925;-80
2021/12/06 05:15:25;;;;;;;;;;;3.10;99.90;;;;;;5049072;28;19927;-80
2021/12/06 05:17:51;;;;;;;;;;;3.10;99.90;;;;;;5032544;28;19921;-80
2021/12/06 05:20:17;;;;;;;;;;;3.10;99.90;;;;;;5056683;28;20356;-80
2021/12/06 05:22:46;;;;;;;;;;;3.10;99.90;;;;;;5054370;28;20298;-80
2021/12/06 05:25:13;;;;;;;;;;;3.10;99.90;;;;;;5039574;28;19921;-80
2021/12/06 05:27:41;;;;;;;;;;;3.10;99.90;;;;;;5047626;28;19970;-81
2021/12/06 05:30:09;;;;;;;;;;;3.10;99.90;;;;;;5039897;28;19932;-80
2021/12/06 05:32:36;;;;;;;;;;;3.10;99.90;;;;;;5055759;28;19921;-80
2021/12/06 05:35:07;;;;;;;;;;;3.10;99.90;;;;;;5046394;28;19947;-80
2021/12/06 05:37:34;;;;;;;;;;;3.10;99.90;;;;;;5072652;28;19920;-80
2021/12/06 05:39:59;;;;;;;;;;;3.10;99.90;;;;;;5045257;28;19920;-80
2021/12/06 05:42:26;;;;;;;;;;;3.10;99.90;;;;;;5047687;28;20301;-80
2021/12/06 05:44:53;;;;;;;;;;;3.10;99.90;;;;;;5028433;28;19935;-81
2021/12/06 05:47:19;;;;;;;;;;;3.10;99.90;;;;;;5049939;28;19925;-80
2021/12/06 05:49:44;;;;;;;;;;;3.10;99.90;;;;;;5050417;28;20370;-80
2021/12/06 05:52:10;;;;;;;;;;;3.10;99.90;;;;;;5050495;28;19970;-80
2021/12/06 05:54:36;;;;;;;;;;;3.10;99.90;;;;;;5055182;28;20300;-80
2021/12/06 05:57:03;;;;;;;;;;;3.10;99.90;;;;;;5039097;28;19952;-80
2021/12/06 05:59:28;;;;;;;;;;;3.10;99.90;;;;;;5072137;28;19932;-80
2021/12/06 06:01:56;;;;;;;;;;;3.10;99.90;;;;;;5029129;28;20300;-81
2021/12/06 06:04:21;;;;;;;;;;;3.20;99.90;;;;;;5066715;28;20011;-80
2021/12/06 06:06:49;;;;;;;;;;;3.20;99.90;;;;;;5039216;28;20362;-80
2021/12/06 06:09:15;;;;;;;;;;;3.20;99.90;;;;;;5048552;28;19929;-81
2021/12/06 06:11:41;;;;;;;;;;;3.20;99.90;;;;;;5056123;28;19928;-80
2021/12/06 06:14:07;;;;;;;;;;;3.20;99.90;;;;;;5065232;28;19928;-80
2021/12/06 06:16:36;;;;;;;;;;;3.20;99.90;;;;;;5055941;28;19946;-80
2021/12/06 06:19:04;;;;;;;;;;;3.20;99.90;;;;;;5031891;28;19972;-80
2021/12/06 06:21:31;;;;;;;;;;;3.20;99.90;;;;;;5067573;28;19986;-81
2021/12/06 06:23:56;;;;;;;;;;;3.20;99.90;;;;;;5055710;28;19928;-81
2021/12/06 06:26:22;;;;;;;;;;;3.20;99.90;;;;;;5055506;28;19920;-80
2021/12/06 06:28:48;;;;;;;;;;;3.20;99.90;;;;;;5050576;28;19935;-80
2021/12/06 06:31:15;;;;;;;;;;;3.20;99.90;;;;;;5032115;28;20421;-81
2021/12/06 06:33:41;;;;;;;;;;;3.20;99.90;;;;;;5053661;28;19921;-80
2021/12/06 06:36:08;;;;;;;;;;;3.20;99.90;;;;;;5067080;28;20466;-81
2021/12/06 06:38:33;;;;;;;;;;;3.20;99.90;;;;;;5068296;28;19932;-81
2021/12/06 06:40:59;;;;;;;;;;;3.20;99.90;;;;;;5042463;28;19920;-81
2021/12/06 06:43:25;;;;;;;;;;;3.20;99.90;;;;;;5052772;28;19971;-80
2021/12/06 06:45:51;;;;;;;;;;;3.20;99.90;;;;;;5037820;28;20402;-80
2021/12/06 06:48:16;;;;;;;;;;;3.20;99.90;;;;;;5035823;28;20279;-80
2021/12/06 06:50:42;;;;;;;;;;;3.20;99.90;;;;;;5051445;28;19920;-80
2021/12/06 06:53:09;;;;;;;;;;;3.20;99.90;;;;;;5061236;28;19971;-81
2021/12/06 06:55:35;;;;;;;;;;;3.20;99.90;;;;;;5070797;28;19924;-80
2021/12/06 06:58:00;;;;;;;;;;;3.20;99.90;;;;;;5042018;28;20480;-80
2021/12/06 07:00:27;;;;;;;;;;;3.20;99.90;;;;;;5052024;28;19928;-80
2021/12/06 07:02:53;;;;;;;;;;;3.20;99.90;;;;;;5069013;28;20019;-81
2021/12/06 07:05:19;;;;;;;;;;;3.20;99.90;;;;;;5046629;28;20010;-80
2021/12/06 07:07:45;;;;;;;;;;;3.20;99.90;;;;;;5051683;28;20385;-80
2021/12/06 07:10:12;;;;;;;;;;;3.10;99.90;;;;;;5051237;28;19924;-80
2021/12/06 07:12:45;;;;;;;;;;;3.10;99.90;;;;;;5049256;28;19924;-79
2021/12/06 07:15:11;;;;;;;;;;;3.10;99.90;;;;;;5068000;28;19943;-80
2021/12/06 07:17:37;;;;;;;;;;;3.10;99.90;;;;;;5048876;28;19967;-80
2021/12/06 07:20:04;;;;;;;;;;;3.10;99.90;;;;;;5032896;28;19928;-80
2021/12/06 07:22:30;;;;;;;;;;;3.10;99.90;;;;;;5032273;28;20019;-79
2021/12/06 07:24:56;;;;;;;;;;;3.10;99.90;;;;;;5052510;28;20011;-79
2021/12/06 07:27:23;;;;;;;;;;;3.10;99.90;;;;;;5057082;28;19979;-78
2021/12/06 07:29:48;;;;;;;;;;;3.10;99.90;;;;;;5064049;28;19928;-79
2021/12/06 07:32:14;;;;;;;;;;;3.10;99.90;;;;;;5038839;28;19924;-79
2021/12/06 07:34:39;;;;;;;;;;;3.00;99.90;;;;;;5064768;28;19924;-79
2021/12/06 07:37:05;;;;;;;;;;;3.00;99.90;;;;;;5047804;28;19924;-79
2021/12/06 07:39:31;;;;;;;;;;;3.00;99.90;;;;;;5065692;28;20267;-79
2021/12/06 07:41:57;;;;;;;;;;;3.00;99.90;;;;;;5046375;28;19968;-80
2021/12/06 07:44:23;;;;;;;;;;;2.90;99.90;;;;;;5057893;28;19952;-80
2021/12/06 07:46:51;;;;;;;;;;;3.00;99.90;;;;;;5067932;28;19928;-80
2021/12/06 07:49:18;;;;;;;;;;;2.90;99.90;;;;;;5049092;28;19932;-79
2021/12/06 07:51:43;;;;;;;;;;;2.90;99.90;;;;;;5047334;28;19928;-80
2021/12/06 07:54:09;;;;;;;;;;;2.90;99.90;;;;;;5060853;28;21328;-79
2021/12/06 07:56:35;;;;;;;;;;;3.00;99.90;;;;;;5058880;28;20659;-79
2021/12/06 07:59:01;;;;;;;;;;;3.00;99.90;;;;;;5044943;28;20003;-79
2021/12/06 08:01:27;;;;;;;;;;;3.00;99.90;;;;;;5044253;28;20606;-80
2021/12/06 08:03:54;;;;;;;;;;;3.00;99.90;;;;;;5063220;28;19935;-79
2021/12/06 08:06:19;;;;;;;;;;;3.00;99.90;;;;;;5041564;28;20385;-80
2021/12/06 08:08:46;;;;;;;;;;;3.00;99.90;;;;;;5037691;28;19930;-79
2021/12/06 08:11:14;;;;;;;;;;;3.00;99.90;;;;;;5041785;28;20003;-79
2021/12/06 08:13:40;;;;;;;;;;;3.00;99.90;;;;;;5064290;28;20009;-80
2021/12/06 08:16:07;;;;;;;;;;;3.00;99.90;;;;;;5032779;28;19928;-80
2021/12/06 08:18:35;;;;;;;;;;;3.00;99.90;;;;;;5039629;28;20116;-79
2021/12/06 08:21:03;;;;;;;;;;;3.00;99.90;;;;;;5045539;28;19932;-80
2021/12/06 08:23:29;;;;;;;;;;;3.00;99.90;;;;;;5045238;28;20285;-80
2021/12/06 08:25:55;;;;;;;;;;;3.00;99.90;;;;;;5046294;28;19935;-80
2021/12/06 08:28:23;;;;;;;;;;;3.00;99.90;;;;;;5041088;28;20287;-79
2021/12/06 08:30:48;;;;;;;;;;;3.00;99.90;;;;;;5047016;28;19944;-80
2021/12/06 08:33:14;;;;;;;;;;;3.00;99.90;;;;;;5047153;28;20420;-80
2021/12/06 08:35:45;;;;;;;;;;;3.10;99.90;;;;;;5059971;28;19956;-79
2021/12/06 08:38:11;;;;;;;;;;;3.00;99.90;;;;;;5062336;28;20386;-81
2021/12/06 08:40:37;;;;;;;;;;;3.00;99.90;;;;;;5046197;28;19932;-80
2021/12/06 08:43:02;;;;;;;;;;;3.00;99.90;;;;;;5028381;28;20392;-80
2021/12/06 08:45:29;;;;;;;;;;;3.00;99.90;;;;;;5043585;28;19964;-79
2021/12/06 08:47:55;;;;;;;;;;;3.00;99.90;;;;;;5062736;28;20311;-79
2021/12/06 08:50:22;;;;;;;;;;;3.00;99.90;;;;;;5046345;28;19927;-80
2021/12/06 08:52:50;;;;;;;;;;;3.00;99.90;;;;;;5061637;28;19966;-79
2021/12/06 08:55:15;;;;;;;;;;;3.00;99.90;;;;;;5066248;28;19946;-79
2021/12/06 08:57:41;;;;;;;;;;;2.90;99.90;;;;;;5062715;28;19928;-79
2021/12/06 09:00:08;;;;;;;;;;;2.90;99.90;;;;;;5064580;28;20370;-79
2021/12/06 09:02:34;;;;;;;;;;;2.80;99.90;;;;;;5045221;28;19958;-79
2021/12/06 09:04:59;;;;;;;;;;;2.80;99.90;;;;;;5040337;28;19963;-79
2021/12/06 09:07:25;;;;;;;;;;;2.80;99.90;;;;;;5064030;28;19970;-79
2021/12/06 09:09:56;;;;;;;;;;;2.80;99.90;;;;;;5021184;28;19928;-78
2021/12/06 09:12:24;;;;;;;;;;;2.80;99.90;;;;;;5038809;28;19932;-78
2021/12/06 09:14:50;;;;;;;;;;;2.80;99.90;;;;;;5059660;28;19932;-79
2021/12/06 09:17:16;;;;;;;;;;;2.80;99.90;;;;;;5053887;28;20309;-79
2021/12/06 09:19:41;;;;;;;;;;;2.80;99.90;;;;;;5039164;28;20071;-79
2021/12/06 09:22:07;;;;;;;;;;;2.90;99.90;;;;;;5055141;28;19951;-80
2021/12/06 09:24:33;;;;;;;;;;;2.90;99.90;;;;;;5044188;28;20306;-79
2021/12/06 09:27:01;;;;;;;;;;;2.90;99.90;;;;;;5039501;28;19921;-79
2021/12/06 09:29:27;;;;;;;;;;;3.00;99.90;;;;;;5042358;28;19935;-79
2021/12/06 09:31:53;;;;;;;;;;;2.90;99.90;;;;;;5057542;28;20402;-79
2021/12/06 09:34:18;;;;;;;;;;;3.00;99.90;;;;;;5038033;28;19928;-78
2021/12/06 09:36:45;;;;;;;;;;;3.00;99.90;;;;;;5061015;28;20619;-79
2021/12/06 09:39:13;;;;;;;;;;;3.00;99.90;;;;;;5038430;28;20397;-78
2021/12/06 09:41:39;;;;;;;;;;;2.90;99.90;;;;;;5057574;28;19924;-79
2021/12/06 09:44:06;;;;;;;;;;;3.00;99.90;;;;;;5038694;28;19951;-78
2021/12/06 09:46:36;;;;;;;;;;;3.00;99.90;;;;;;5057017;28;19931;-78
2021/12/06 09:49:03;;;;;;;;;;;3.00;99.90;;;;;;5058996;28;19943;-77
2021/12/06 09:51:29;;;;;;;;;;;3.00;99.90;;;;;;5045140;28;19939;-78
2021/12/06 09:53:55;;;;;;;;;;;3.00;99.90;;;;;;5045133;28;20022;-78
2021/12/06 09:56:23;;;;;;;;;;;2.90;99.90;;;;;;5026862;28;20283;-78
2021/12/06 09:58:49;;;;;;;;;;;3.00;99.90;;;;;;5062775;28;19920;-78
2021/12/06 10:01:19;;;;;;;;;;;2.90;99.90;;;;;;5047310;28;19928;-78
2021/12/06 10:03:47;;;;;;;;;;;2.90;99.90;;;;;;5064257;28;19932;-77
2021/12/06 10:06:13;;;;;;;;;;;2.90;99.90;;;;;;5064375;28;20437;-79
2021/12/06 10:08:40;;;;;;;;;;;2.90;99.90;;;;;;5061065;28;19930;-79
2021/12/06 10:11:06;;;;;;;;;;;2.90;99.90;;;;;;5052655;28;20007;-78
2021/12/06 10:13:32;;;;;;;;;;;2.90;99.90;;;;;;5043081;28;20007;-79
2021/12/06 10:15:58;;;;;;;;;;;3.00;99.90;;;;;;5044089;28;19924;-78
2021/12/06 10:18:25;;;;;;;;;;;2.90;99.90;;;;;;5041382;28;19928;-77
2021/12/06 10:20:51;;;;;;;;;;;2.90;99.90;;;;;;5064185;28;19970;-77
2021/12/06 10:23:18;;;;;;;;;;;2.90;99.90;;;;;;5058541;28;19928;-78
2021/12/06 10:25:45;;;;;;;;;;;2.90;99.90;;;;;;5064961;28;20325;-78
2021/12/06 10:28:11;;;;;;;;;;;2.90;99.90;;;;;;5048940;28;20366;-78
2021/12/06 10:30:38;;;;;;;;;;;2.90;99.90;;;;;;5044060;28;19921;-78
2021/12/06 10:33:05;;;;;;;;;;;3.00;99.90;;;;;;5035150;28;19935;-78
2021/12/06 10:35:33;;;;;;;;;;;3.00;99.90;;;;;;5059654;28;19921;-77
2021/12/06 10:37:59;;;;;;;;;;;3.00;99.90;;;;;;5041425;28;19931;-77
2021/12/06 10:40:27;;;;;;;;;;;3.10;99.90;;;;;;5043120;28;19924;-78
2021/12/06 10:42:55;;;;;;;;;;;3.10;99.90;;;;;;5064943;28;19931;-78
2021/12/06 10:45:22;;;;;;;;;;;3.00;99.90;;;;;;5062117;28;19928;-78
2021/12/06 10:48:02;;;;;;;;;;;3.00;99.90;;;;;;5028739;28;19924;-79
2021/12/06 10:50:28;;;;;;;;;;;3.10;99.90;;;;;;5035523;28;19920;-77
2021/12/06 10:52:56;;;;;;;;;;;3.20;99.90;;;;;;5042154;28;19928;-78
2021/12/06 10:55:29;;;;;;;;;;;3.20;99.90;;;;;;5062980;28;19936;-78
2021/12/06 10:57:56;;;;;;;;;;;3.20;99.90;;;;;;5049485;28;20011;-79
2021/12/06 11:00:34;;;;;;;;;;;3.20;99.90;;;;;;5047400;28;19960;-77
2021/12/06 11:03:01;;;;;;;;;;;3.20;99.90;;;;;;5039964;28;19925;-77
2021/12/06 11:05:28;;;;;;;;;;;3.20;99.90;;;;;;5056626;28;20295;-77
2021/12/06 11:08:06;;;;;;;;;;;3.20;99.90;;;;;;5056073;28;19928;-78
2021/12/06 11:10:36;;;;;;;;;;;3.10;99.90;;;;;;5058256;28;19943;-78
2021/12/06 11:13:12;;;;;;;;;;;3.20;99.90;;;;;;5036394;28;19924;-77
2021/12/06 11:15:50;;;;;;;;;;;3.20;99.90;;;;;;5060481;28;19920;-78
2021/12/06 11:18:27;;;;;;;;;;;3.20;99.90;;;;;;5027698;28;20337;-78
2021/12/06 11:20:53;;;;;;;;;;;3.20;99.90;;;;;;5062073;28;20307;-78
2021/12/06 11:23:20;;;;;;;;;;;3.20;99.90;;;;;;5046107;28;19931;-79
2021/12/06 11:25:53;;;;;;;;;;;3.20;99.90;;;;;;5066287;28;20381;-77
2021/12/06 11:28:22;;;;;;;;;;;3.30;99.90;;;;;;5055717;28;19932;-79
2021/12/06 11:30:55;;;;;;;;;;;3.30;99.90;;;;;;5047744;28;19924;-78
2021/12/06 11:33:25;;;;;;;;;;;3.30;99.90;;;;;;5068592;28;20291;-78
2021/12/06 11:35:50;;;;;;;;;;;3.30;99.90;;;;;;5034321;28;19921;-79
2021/12/06 11:38:19;;;;;;;;;;;3.40;99.90;;;;;;5042889;28;19927;-77
2021/12/06 11:40:45;;;;;;;;;;;3.40;99.90;;;;;;5040318;28;19920;-78
2021/12/06 11:43:13;;;;;;;;;;;3.40;99.90;;;;;;5049484;28;19959;-78
2021/12/06 11:45:50;;;;;;;;;;;3.40;99.90;;;;;;5034526;28;19932;-78
2021/12/06 11:48:17;;;;;;;;;;;3.40;99.90;;;;;;5042847;28;19928;-78
2021/12/06 11:50:43;;;;;;;;;;;3.50;99.90;;;;;;5025061;28;20386;-78
2021/12/06 11:53:09;;;;;;;;;;;3.50;99.90;;;;;;5032547;28;19924;-78
2021/12/06 11:55:35;;;;;;;;;;;3.50;99.90;;;;;;5061358;28;19931;-79
2021/12/06 11:58:03;;;;;;;;;;;3.50;99.90;;;;;;5048996;28;19920;-79
2021/12/06 12:00:30;;;;;;;;;;;3.60;99.90;;;;;;5032518;28;19932;-79
2021/12/06 12:02:57;;;;;;;;;;;3.70;99.90;;;;;;5048782;28;19932;-76
2021/12/06 12:05:28;;;;;;;;;;;3.60;99.90;;;;;;5038159;28;19920;-78
2021/12/06 12:07:54;;;;;;;;;;;3.70;99.90;;;;;;5060878;28;20427;-77
2021/12/06 12:10:27;;;;;;;;;;;3.70;99.90;;;;;;5058568;28;20009;-77
2021/12/06 12:12:53;;;;;;;;;;;3.70;99.90;;;;;;5059090;28;19920;-78
2021/12/06 12:15:20;;;;;;;;;;;3.70;99.90;;;;;;5033967;28;19924;-78
2021/12/06 12:17:49;;;;;;;;;;;3.60;99.90;;;;;;5062661;28;19994;-77
2021/12/06 12:20:15;;;;;;;;;;;3.60;99.90;;;;;;5044721;28;19935;-78
2021/12/06 12:22:44;;;;;;;;;;;3.50;99.90;;;;;;5043493;28;19977;-78
2021/12/06 12:25:19;;;;;;;;;;;3.50;99.90;;;;;;5027805;28;19967;-77
2021/12/06 12:27:57;;;;;;;;;;;3.50;99.90;;;;;;5043866;28;19934;-77
2021/12/06 12:30:31;;;;;;;;;;;3.50;99.90;;;;;;5060724;28;19931;-78
2021/12/06 12:32:57;;;;;;;;;;;3.60;99.90;;;;;;5047062;28;20080;-78
2021/12/06 12:35:23;;;;;;;;;;;3.50;99.90;;;;;;5046081;28;20370;-77
2021/12/06 12:37:50;;;;;;;;;;;3.60;99.90;;;;;;5055425;28;20031;-77
2021/12/06 12:40:16;;;;;;;;;;;3.60;99.90;;;;;;5043463;28;20060;-78
2021/12/06 12:42:52;;;;;;;;;;;3.60;99.90;;;;;;5055647;28;19925;-79
2021/12/06 12:45:18;;;;;;;;;;;3.60;99.90;;;;;;5043667;28;19920;-79
2021/12/06 12:47:45;;;;;;;;;;;3.50;99.90;;;;;;5059427;28;20417;-77
2021/12/06 12:50:14;;;;;;;;;;;3.60;99.90;;;;;;5045547;28;19925;-78
2021/12/06 12:52:41;;;;;;;;;;;3.60;99.90;;;;;;5055809;28;19932;-78
2021/12/06 12:55:20;;;;;;;;;;;3.70;99.90;;;;;;5041988;28;19936;-79
2021/12/06 12:57:45;;;;;;;;;;;3.70;99.90;;;;;;5040152;28;19960;-79
2021/12/06 13:00:15;;;;;;;;;;;3.70;99.90;;;;;;5062233;28;20017;-79
2021/12/06 13:02:41;;;;;;;;;;;3.70;99.90;;;;;;5032962;28;19920;-78
2021/12/06 13:05:13;;;;;;;;;;;3.80;99.90;;;;;;5041242;28;19936;-79
2021/12/06 13:08:09;;;;;;;;;;;3.70;99.90;;;;;;5057930;28;20386;-78
2021/12/06 13:10:45;;;;;;;;;;;3.70;99.90;;;;;;4937845;28;20431;-79
2021/12/06 13:13:19;;;;;;;;;;;3.80;99.90;;;;;;5040030;28;19920;-77
2021/12/06 13:15:54;;;;;;;;;;;3.80;99.90;;;;;;5066510;28;19924;-79
2021/12/06 13:21:30;;;;;;;;;;;3.80;99.90;;;;;;5054919;28;20301;-77
2021/12/06 13:24:03;;;;;;;;;;;3.80;99.90;;;;;;5058995;28;20141;-78
2021/12/06 13:26:33;;;;;;;;;;;3.80;99.90;;;;;;5029138;28;19921;-79
2021/12/06 13:29:04;;;;;;;;;;;3.70;99.90;;;;;;5045960;28;19977;-78
2021/12/06 13:31:29;;;;;;;;;;;3.70;99.90;;;;;;5028772;28;20015;-78
2021/12/06 13:33:55;;;;;;;;;;;3.80;99.90;;;;;;5061731;28;20058;-79
2021/12/06 13:39:36;;;;;;;;;;;3.80;99.90;;;;;;5089048;27;19928;-77
2021/12/06 13:42:03;;;;;;;;;;;3.80;99.90;;;;;;5056143;28;19936;-77
2021/12/06 13:44:45;;;;;;;;;;;3.80;99.90;;;;;;5059630;28;19921;-78
2021/12/06 13:47:13;;;;;;;;;;;3.80;99.90;;;;;;5076354;28;19921;-77
2021/12/06 13:49:50;;;;;;;;;;;3.90;99.90;;;;;;5055881;28;20374;-77
2021/12/06 13:52:15;;;;;;;;;;;3.80;99.90;;;;;;5091217;22;20411;-77
2021/12/06 13:54:49;;;;;;;;;;;3.90;99.90;;;;;;5006298;28;19958;-76
2021/12/06 13:57:16;;;;;;;;;;;3.80;99.90;;;;;;5026487;28;19986;-79
2021/12/06 13:59:43;;;;;;;;;;;3.80;99.90;;;;;;5033159;28;19921;-78
2021/12/06 14:02:09;;;;;;;;;;;3.80;99.90;;;;;;5031457;28;20527;-77
2021/12/06 14:04:36;;;;;;;;;;;3.90;99.90;;;;;;5036026;28;19925;-78
2021/12/06 14:07:05;;;;;;;;;;;3.80;99.90;;;;;;5049178;28;19929;-78
2021/12/06 14:09:32;;;;;;;;;;;3.90;99.90;;;;;;5023643;28;19935;-79
2021/12/06 14:12:01;;;;;;;;;;;3.80;99.90;;;;;;5027351;28;19939;-78
2021/12/06 14:14:28;;;;;;;;;;;3.90;99.90;;;;;;5027546;28;19939;-79
2021/12/06 14:16:55;;;;;;;;;;;3.90;99.90;;;;;;5047431;28;19920;-78
2021/12/06 14:19:23;;;;;;;;;;;3.90;99.90;;;;;;5023220;28;20392;-78
2021/12/06 14:21:51;;;;;;;;;;;3.90;99.90;;;;;;5016826;28;19967;-79
2021/12/06 14:24:16;;;;;;;;;;;3.90;99.90;;;;;;5022208;28;19920;-77
2021/12/06 14:26:44;;;;;;;;;;;3.90;99.90;;;;;;5026236;28;20570;-79
2021/12/06 14:29:16;;;;;;;;;;;3.90;99.90;;;;;;5023668;28;19944;-76
2021/12/06 14:31:42;;;;;;;;;;;3.90;99.90;;;;;;5000063;28;19960;-75
2021/12/06 14:34:07;;;;;;;;;;;3.90;99.90;;;;;;5006727;28;20384;-76
2021/12/06 14:36:34;;;;;;;;;;;3.90;99.90;;;;;;5005320;28;19928;-77
2021/12/06 14:39:06;;;;;;;;;;;3.90;99.90;;;;;;5015935;28;19970;-75
2021/12/06 14:41:31;;;;;;;;;;;3.90;99.90;;;;;;5039082;28;19932;-76
2021/12/06 14:43:57;;;;;;;;;;;3.90;99.90;;;;;;5017192;28;19952;-78
2021/12/06 14:46:24;;;;;;;;;;;3.90;99.90;;;;;;5007776;28;19935;-78
2021/12/06 14:48:51;;;;;;;;;;;4.00;99.90;;;;;;5016008;28;20298;-78
2021/12/06 14:51:17;;;;;;;;;;;3.90;99.90;;;;;;5029494;28;19927;-78
2021/12/06 14:53:58;;;;;;;;;;;4.00;99.90;;;;;;5009024;28;19921;-78